sensor_id;sensor_type;location;lat;lon;timestamp;P1;durP1;ratioP1;P2;durP2;ratioP2
71558;SDS011;59382;43.852;25.952;2022-10-16T00:01:18;10.60;;;5.75;;
71558;SDS011;59382;43.852;25.952;2022-10-16T00:03:45;11.20;;;5.88;;
71558;SDS011;59382;43.852;25.952;2022-10-16T00:06:12;7.38;;;5.47;;
71558;SDS011;59382;43.852;25.952;2022-10-16T00:08:39;8.82;;;5.30;;
71558;SDS011;59382;43.852;25.952;2022-10-16T00:11:12;11.50;;;6.00;;
71558;SDS011;59382;43.852;25.952;2022-10-16T00:13:45;13.95;;;6.43;;
71558;SDS011;59382;43.852;25.952;2022-10-16T00:16:12;11.77;;;6.22;;
71558;SDS011;59382;43.852;25.952;2022-10-16T00:18:38;9.88;;;5.63;;
71558;SDS011;59382;43.852;25.952;2022-10-16T00:23:37;11.15;;;5.45;;
71558;SDS011;59382;43.852;25.952;2022-10-16T00:26:06;8.70;;;5.85;;
71558;SDS011;59382;43.852;25.952;2022-10-16T00:28:34;8.20;;;5.68;;
71558;SDS011;59382;43.852;25.952;2022-10-16T00:31:04;6.95;;;5.28;;
71558;SDS011;59382;43.852;25.952;2022-10-16T00:33:31;6.57;;;4.85;;
71558;SDS011;59382;43.852;25.952;2022-10-16T00:35:57;7.47;;;4.53;;
71558;SDS011;59382;43.852;25.952;2022-10-16T00:38:24;7.97;;;5.10;;
71558;SDS011;59382;43.852;25.952;2022-10-16T00:40:49;6.97;;;5.00;;
71558;SDS011;59382;43.852;25.952;2022-10-16T00:46:12;8.25;;;4.78;;
71558;SDS011;59382;43.852;25.952;2022-10-16T00:48:38;9.63;;;5.57;;
71558;SDS011;59382;43.852;25.952;2022-10-16T00:51:04;9.15;;;4.95;;
71558;SDS011;59382;43.852;25.952;2022-10-16T00:53:31;5.55;;;3.90;;
71558;SDS011;59382;43.852;25.952;2022-10-16T00:55:56;11.40;;;4.43;;
71558;SDS011;59382;43.852;25.952;2022-10-16T00:58:22;9.23;;;4.30;;
71558;SDS011;59382;43.852;25.952;2022-10-16T01:00:48;10.27;;;4.63;;
71558;SDS011;59382;43.852;25.952;2022-10-16T01:03:28;8.50;;;4.95;;
71558;SDS011;59382;43.852;25.952;2022-10-16T01:06:18;10.68;;;4.40;;
71558;SDS011;59382;43.852;25.952;2022-10-16T01:09:47;8.43;;;4.28;;
71558;SDS011;59382;43.852;25.952;2022-10-16T01:14:47;5.47;;;3.78;;
71558;SDS011;59382;43.852;25.952;2022-10-16T01:17:23;7.80;;;4.10;;
71558;SDS011;59382;43.852;25.952;2022-10-16T01:22:57;7.28;;;4.05;;
71558;SDS011;59382;43.852;25.952;2022-10-16T01:25:42;7.45;;;4.18;;
71558;SDS011;59382;43.852;25.952;2022-10-16T01:28:30;5.90;;;4.50;;
71558;SDS011;59382;43.852;25.952;2022-10-16T01:31:01;9.38;;;4.25;;
71558;SDS011;59382;43.852;25.952;2022-10-16T01:33:29;6.05;;;4.35;;
71558;SDS011;59382;43.852;25.952;2022-10-16T01:36:21;10.63;;;4.10;;
71558;SDS011;59382;43.852;25.952;2022-10-16T01:38:52;9.00;;;3.83;;
71558;SDS011;59382;43.852;25.952;2022-10-16T01:41:23;5.05;;;3.58;;
71558;SDS011;59382;43.852;25.952;2022-10-16T01:43:56;5.45;;;3.65;;
71558;SDS011;59382;43.852;25.952;2022-10-16T01:46:30;10.32;;;4.15;;
71558;SDS011;59382;43.852;25.952;2022-10-16T01:48:57;9.43;;;3.90;;
71558;SDS011;59382;43.852;25.952;2022-10-16T01:51:25;6.65;;;4.32;;
71558;SDS011;59382;43.852;25.952;2022-10-16T01:53:53;6.10;;;3.75;;
71558;SDS011;59382;43.852;25.952;2022-10-16T01:56:22;6.93;;;3.80;;
71558;SDS011;59382;43.852;25.952;2022-10-16T01:59:12;4.65;;;3.35;;
71558;SDS011;59382;43.852;25.952;2022-10-16T02:01:39;10.35;;;3.53;;
71558;SDS011;59382;43.852;25.952;2022-10-16T02:04:19;6.75;;;3.83;;
71558;SDS011;59382;43.852;25.952;2022-10-16T02:06:52;9.48;;;4.25;;
71558;SDS011;59382;43.852;25.952;2022-10-16T02:09:18;4.47;;;3.45;;
71558;SDS011;59382;43.852;25.952;2022-10-16T02:11:44;6.35;;;3.97;;
71558;SDS011;59382;43.852;25.952;2022-10-16T02:14:10;6.60;;;4.20;;
71558;SDS011;59382;43.852;25.952;2022-10-16T02:19:03;9.60;;;4.90;;
71558;SDS011;59382;43.852;25.952;2022-10-16T02:21:37;5.88;;;4.13;;
71558;SDS011;59382;43.852;25.952;2022-10-16T02:24:24;6.90;;;3.90;;
71558;SDS011;59382;43.852;25.952;2022-10-16T02:27:19;5.53;;;3.65;;
71558;SDS011;59382;43.852;25.952;2022-10-16T02:29:52;6.93;;;4.82;;
71558;SDS011;59382;43.852;25.952;2022-10-16T02:32:24;5.85;;;3.80;;
71558;SDS011;59382;43.852;25.952;2022-10-16T02:34:55;5.63;;;4.00;;
71558;SDS011;59382;43.852;25.952;2022-10-16T02:37:23;7.18;;;4.30;;
71558;SDS011;59382;43.852;25.952;2022-10-16T02:39:50;6.95;;;4.28;;
71558;SDS011;59382;43.852;25.952;2022-10-16T02:42:17;5.43;;;3.85;;
71558;SDS011;59382;43.852;25.952;2022-10-16T02:44:43;4.10;;;3.70;;
71558;SDS011;59382;43.852;25.952;2022-10-16T02:47:08;8.07;;;4.32;;
71558;SDS011;59382;43.852;25.952;2022-10-16T02:49:34;5.50;;;3.88;;
71558;SDS011;59382;43.852;25.952;2022-10-16T02:51:59;7.25;;;4.18;;
71558;SDS011;59382;43.852;25.952;2022-10-16T02:54:25;5.28;;;3.53;;
71558;SDS011;59382;43.852;25.952;2022-10-16T02:56:50;7.63;;;3.90;;
71558;SDS011;59382;43.852;25.952;2022-10-16T02:59:16;5.05;;;3.88;;
71558;SDS011;59382;43.852;25.952;2022-10-16T03:01:41;5.30;;;4.03;;
71558;SDS011;59382;43.852;25.952;2022-10-16T03:04:08;8.00;;;4.20;;
71558;SDS011;59382;43.852;25.952;2022-10-16T03:06:34;5.10;;;3.72;;
71558;SDS011;59382;43.852;25.952;2022-10-16T03:08:59;5.53;;;3.75;;
71558;SDS011;59382;43.852;25.952;2022-10-16T03:11:25;7.28;;;3.80;;
71558;SDS011;59382;43.852;25.952;2022-10-16T03:13:51;5.03;;;3.75;;
71558;SDS011;59382;43.852;25.952;2022-10-16T03:16:17;6.10;;;3.80;;
71558;SDS011;59382;43.852;25.952;2022-10-16T03:18:42;5.35;;;3.83;;
71558;SDS011;59382;43.852;25.952;2022-10-16T03:21:08;6.50;;;4.22;;
71558;SDS011;59382;43.852;25.952;2022-10-16T03:23:33;5.07;;;3.70;;
71558;SDS011;59382;43.852;25.952;2022-10-16T03:25:59;8.25;;;4.25;;
71558;SDS011;59382;43.852;25.952;2022-10-16T03:28:24;10.15;;;4.60;;
71558;SDS011;59382;43.852;25.952;2022-10-16T03:30:50;3.92;;;3.60;;
71558;SDS011;59382;43.852;25.952;2022-10-16T03:33:15;7.18;;;4.13;;
71558;SDS011;59382;43.852;25.952;2022-10-16T03:35:41;4.90;;;4.03;;
71558;SDS011;59382;43.852;25.952;2022-10-16T03:38:06;6.68;;;4.32;;
71558;SDS011;59382;43.852;25.952;2022-10-16T03:40:32;6.78;;;4.20;;
71558;SDS011;59382;43.852;25.952;2022-10-16T03:42:57;5.30;;;3.95;;
71558;SDS011;59382;43.852;25.952;2022-10-16T03:45:24;5.13;;;4.18;;
71558;SDS011;59382;43.852;25.952;2022-10-16T03:47:49;7.35;;;4.45;;
71558;SDS011;59382;43.852;25.952;2022-10-16T03:50:15;7.55;;;4.20;;
71558;SDS011;59382;43.852;25.952;2022-10-16T03:52:41;6.55;;;4.00;;
71558;SDS011;59382;43.852;25.952;2022-10-16T03:55:06;7.72;;;3.63;;
71558;SDS011;59382;43.852;25.952;2022-10-16T03:57:32;8.32;;;4.40;;
71558;SDS011;59382;43.852;25.952;2022-10-16T03:59:58;6.63;;;3.83;;
71558;SDS011;59382;43.852;25.952;2022-10-16T04:02:23;7.95;;;4.30;;
71558;SDS011;59382;43.852;25.952;2022-10-16T04:04:49;8.75;;;4.07;;
71558;SDS011;59382;43.852;25.952;2022-10-16T04:07:14;6.57;;;4.38;;
71558;SDS011;59382;43.852;25.952;2022-10-16T04:09:40;4.82;;;3.40;;
71558;SDS011;59382;43.852;25.952;2022-10-16T04:12:05;10.95;;;4.53;;
71558;SDS011;59382;43.852;25.952;2022-10-16T04:14:31;7.68;;;4.07;;
71558;SDS011;59382;43.852;25.952;2022-10-16T04:16:56;9.25;;;4.10;;
71558;SDS011;59382;43.852;25.952;2022-10-16T04:19:22;8.05;;;4.30;;
71558;SDS011;59382;43.852;25.952;2022-10-16T04:21:47;7.82;;;4.28;;
71558;SDS011;59382;43.852;25.952;2022-10-16T04:24:13;6.47;;;3.63;;
71558;SDS011;59382;43.852;25.952;2022-10-16T04:26:38;6.35;;;4.72;;
71558;SDS011;59382;43.852;25.952;2022-10-16T04:29:04;6.63;;;4.53;;
71558;SDS011;59382;43.852;25.952;2022-10-16T04:31:29;6.57;;;4.07;;
71558;SDS011;59382;43.852;25.952;2022-10-16T04:33:55;7.32;;;4.50;;
71558;SDS011;59382;43.852;25.952;2022-10-16T04:36:20;5.32;;;3.92;;
71558;SDS011;59382;43.852;25.952;2022-10-16T04:38:46;4.80;;;3.80;;
71558;SDS011;59382;43.852;25.952;2022-10-16T04:41:11;6.78;;;3.70;;
71558;SDS011;59382;43.852;25.952;2022-10-16T04:43:37;5.32;;;3.65;;
71558;SDS011;59382;43.852;25.952;2022-10-16T04:46:03;4.55;;;3.55;;
71558;SDS011;59382;43.852;25.952;2022-10-16T04:48:30;7.28;;;3.35;;
71558;SDS011;59382;43.852;25.952;2022-10-16T04:50:56;4.25;;;3.85;;
71558;SDS011;59382;43.852;25.952;2022-10-16T04:53:21;5.63;;;4.00;;
71558;SDS011;59382;43.852;25.952;2022-10-16T04:55:47;9.57;;;4.00;;
71558;SDS011;59382;43.852;25.952;2022-10-16T04:58:13;10.55;;;3.80;;
71558;SDS011;59382;43.852;25.952;2022-10-16T05:00:38;6.88;;;4.10;;
71558;SDS011;59382;43.852;25.952;2022-10-16T05:03:04;11.02;;;4.25;;
71558;SDS011;59382;43.852;25.952;2022-10-16T05:05:33;7.07;;;4.10;;
71558;SDS011;59382;43.852;25.952;2022-10-16T05:07:59;7.72;;;4.45;;
71558;SDS011;59382;43.852;25.952;2022-10-16T05:10:24;5.55;;;4.43;;
71558;SDS011;59382;43.852;25.952;2022-10-16T05:12:50;8.68;;;6.03;;
71558;SDS011;59382;43.852;25.952;2022-10-16T05:15:16;7.95;;;5.43;;
71558;SDS011;59382;43.852;25.952;2022-10-16T05:17:42;9.13;;;5.72;;
71558;SDS011;59382;43.852;25.952;2022-10-16T05:20:08;12.30;;;7.10;;
71558;SDS011;59382;43.852;25.952;2022-10-16T05:22:33;13.38;;;6.68;;
71558;SDS011;59382;43.852;25.952;2022-10-16T05:25:01;14.18;;;7.75;;
71558;SDS011;59382;43.852;25.952;2022-10-16T05:27:27;15.82;;;7.10;;
71558;SDS011;59382;43.852;25.952;2022-10-16T05:29:52;14.18;;;6.68;;
71558;SDS011;59382;43.852;25.952;2022-10-16T05:32:18;19.45;;;7.65;;
71558;SDS011;59382;43.852;25.952;2022-10-16T05:34:44;16.00;;;6.95;;
71558;SDS011;59382;43.852;25.952;2022-10-16T05:37:10;12.02;;;7.10;;
71558;SDS011;59382;43.852;25.952;2022-10-16T05:39:36;15.10;;;6.70;;
71558;SDS011;59382;43.852;25.952;2022-10-16T05:42:02;9.57;;;6.93;;
71558;SDS011;59382;43.852;25.952;2022-10-16T05:44:28;14.38;;;6.63;;
71558;SDS011;59382;43.852;25.952;2022-10-16T05:46:54;13.05;;;5.90;;
71558;SDS011;59382;43.852;25.952;2022-10-16T05:49:20;16.75;;;7.03;;
71558;SDS011;59382;43.852;25.952;2022-10-16T05:51:45;19.42;;;5.85;;
71558;SDS011;59382;43.852;25.952;2022-10-16T05:54:11;7.63;;;4.88;;
71558;SDS011;59382;43.852;25.952;2022-10-16T05:56:36;9.88;;;4.32;;
71558;SDS011;59382;43.852;25.952;2022-10-16T05:59:03;8.45;;;5.22;;
71558;SDS011;59382;43.852;25.952;2022-10-16T06:01:29;9.68;;;6.82;;
71558;SDS011;59382;43.852;25.952;2022-10-16T06:03:56;7.82;;;5.03;;
71558;SDS011;59382;43.852;25.952;2022-10-16T06:06:23;10.98;;;5.70;;
71558;SDS011;59382;43.852;25.952;2022-10-16T06:08:51;8.25;;;5.32;;
71558;SDS011;59382;43.852;25.952;2022-10-16T06:11:18;12.95;;;4.95;;
71558;SDS011;59382;43.852;25.952;2022-10-16T06:13:52;9.38;;;5.13;;
71558;SDS011;59382;43.852;25.952;2022-10-16T06:16:26;7.05;;;4.50;;
71558;SDS011;59382;43.852;25.952;2022-10-16T06:18:52;10.73;;;4.60;;
71558;SDS011;59382;43.852;25.952;2022-10-16T06:21:22;6.93;;;4.25;;
71558;SDS011;59382;43.852;25.952;2022-10-16T06:23:52;8.50;;;4.10;;
71558;SDS011;59382;43.852;25.952;2022-10-16T06:26:20;6.05;;;4.35;;
71558;SDS011;59382;43.852;25.952;2022-10-16T06:28:47;10.50;;;5.43;;
71558;SDS011;59382;43.852;25.952;2022-10-16T06:31:14;10.88;;;4.50;;
71558;SDS011;59382;43.852;25.952;2022-10-16T06:33:40;5.68;;;4.00;;
71558;SDS011;59382;43.852;25.952;2022-10-16T06:36:07;11.43;;;4.15;;
71558;SDS011;59382;43.852;25.952;2022-10-16T06:38:34;10.65;;;4.45;;
71558;SDS011;59382;43.852;25.952;2022-10-16T06:41:00;7.50;;;4.70;;
71558;SDS011;59382;43.852;25.952;2022-10-16T06:43:28;9.20;;;5.53;;
71558;SDS011;59382;43.852;25.952;2022-10-16T06:45:57;6.20;;;4.68;;
71558;SDS011;59382;43.852;25.952;2022-10-16T06:48:24;7.70;;;5.00;;
71558;SDS011;59382;43.852;25.952;2022-10-16T06:53:26;14.88;;;5.80;;
71558;SDS011;59382;43.852;25.952;2022-10-16T06:55:53;12.18;;;5.53;;
71558;SDS011;59382;43.852;25.952;2022-10-16T06:58:19;10.02;;;5.93;;
71558;SDS011;59382;43.852;25.952;2022-10-16T07:00:47;9.85;;;5.93;;
71558;SDS011;59382;43.852;25.952;2022-10-16T07:03:13;12.75;;;5.38;;
71558;SDS011;59382;43.852;25.952;2022-10-16T07:05:41;9.05;;;6.20;;
71558;SDS011;59382;43.852;25.952;2022-10-16T07:08:08;16.17;;;6.90;;
71558;SDS011;59382;43.852;25.952;2022-10-16T07:10:33;9.00;;;6.00;;
71558;SDS011;59382;43.852;25.952;2022-10-16T07:12:59;12.70;;;6.80;;
71558;SDS011;59382;43.852;25.952;2022-10-16T07:15:25;9.00;;;6.32;;
71558;SDS011;59382;43.852;25.952;2022-10-16T07:17:51;11.98;;;6.13;;
71558;SDS011;59382;43.852;25.952;2022-10-16T07:20:17;9.98;;;6.50;;
71558;SDS011;59382;43.852;25.952;2022-10-16T07:22:42;10.55;;;5.70;;
71558;SDS011;59382;43.852;25.952;2022-10-16T07:25:08;14.60;;;6.15;;
71558;SDS011;59382;43.852;25.952;2022-10-16T07:27:36;11.10;;;6.72;;
71558;SDS011;59382;43.852;25.952;2022-10-16T07:30:02;14.25;;;7.95;;
71558;SDS011;59382;43.852;25.952;2022-10-16T07:32:28;15.98;;;9.13;;
71558;SDS011;59382;43.852;25.952;2022-10-16T07:34:54;12.98;;;7.68;;
71558;SDS011;59382;43.852;25.952;2022-10-16T07:37:20;12.68;;;7.60;;
71558;SDS011;59382;43.852;25.952;2022-10-16T07:39:46;10.77;;;7.32;;
71558;SDS011;59382;43.852;25.952;2022-10-16T07:42:13;10.80;;;7.00;;
71558;SDS011;59382;43.852;25.952;2022-10-16T07:44:39;11.27;;;6.07;;
71558;SDS011;59382;43.852;25.952;2022-10-16T07:47:05;10.27;;;6.70;;
71558;SDS011;59382;43.852;25.952;2022-10-16T07:49:31;18.08;;;8.70;;
71558;SDS011;59382;43.852;25.952;2022-10-16T07:51:56;11.40;;;7.40;;
71558;SDS011;59382;43.852;25.952;2022-10-16T07:54:22;16.83;;;11.40;;
71558;SDS011;59382;43.852;25.952;2022-10-16T07:56:47;12.68;;;8.40;;
71558;SDS011;59382;43.852;25.952;2022-10-16T07:59:13;12.70;;;7.80;;
71558;SDS011;59382;43.852;25.952;2022-10-16T08:01:38;14.18;;;6.80;;
71558;SDS011;59382;43.852;25.952;2022-10-16T08:04:04;8.07;;;5.35;;
71558;SDS011;59382;43.852;25.952;2022-10-16T08:06:34;9.52;;;6.63;;
71558;SDS011;59382;43.852;25.952;2022-10-16T08:09:02;10.55;;;6.20;;
71558;SDS011;59382;43.852;25.952;2022-10-16T08:11:31;13.57;;;9.07;;
71558;SDS011;59382;43.852;25.952;2022-10-16T08:13:57;18.00;;;12.95;;
71558;SDS011;59382;43.852;25.952;2022-10-16T08:16:22;11.32;;;7.13;;
71558;SDS011;59382;43.852;25.952;2022-10-16T08:18:48;11.63;;;5.60;;
71558;SDS011;59382;43.852;25.952;2022-10-16T08:21:16;10.70;;;6.13;;
71558;SDS011;59382;43.852;25.952;2022-10-16T08:23:44;11.48;;;6.68;;
71558;SDS011;59382;43.852;25.952;2022-10-16T08:26:10;7.25;;;5.40;;
71558;SDS011;59382;43.852;25.952;2022-10-16T08:28:37;12.57;;;7.32;;
71558;SDS011;59382;43.852;25.952;2022-10-16T08:31:07;9.40;;;6.43;;
71558;SDS011;59382;43.852;25.952;2022-10-16T08:33:34;11.20;;;5.95;;
71558;SDS011;59382;43.852;25.952;2022-10-16T08:36:03;8.30;;;6.45;;
71558;SDS011;59382;43.852;25.952;2022-10-16T08:38:29;11.65;;;7.32;;
71558;SDS011;59382;43.852;25.952;2022-10-16T08:40:57;12.68;;;6.82;;
71558;SDS011;59382;43.852;25.952;2022-10-16T08:43:57;11.07;;;6.18;;
71558;SDS011;59382;43.852;25.952;2022-10-16T08:49:06;14.70;;;11.13;;
71558;SDS011;59382;43.852;25.952;2022-10-16T08:51:37;14.98;;;7.45;;
71558;SDS011;59382;43.852;25.952;2022-10-16T08:54:47;9.73;;;4.65;;
71558;SDS011;59382;43.852;25.952;2022-10-16T08:56:54;11.68;;;5.45;;
71558;SDS011;59382;43.852;25.952;2022-10-16T08:59:21;7.63;;;5.00;;
71558;SDS011;59382;43.852;25.952;2022-10-16T09:01:47;9.35;;;5.68;;
71558;SDS011;59382;43.852;25.952;2022-10-16T09:04:40;11.05;;;6.68;;
71558;SDS011;59382;43.852;25.952;2022-10-16T09:07:37;9.43;;;4.90;;
71558;SDS011;59382;43.852;25.952;2022-10-16T09:18:29;12.80;;;4.93;;
71558;SDS011;59382;43.852;25.952;2022-10-16T09:21:19;7.75;;;5.00;;
71558;SDS011;59382;43.852;25.952;2022-10-16T09:23:50;9.70;;;5.05;;
71558;SDS011;59382;43.852;25.952;2022-10-16T09:26:16;7.28;;;4.90;;
71558;SDS011;59382;43.852;25.952;2022-10-16T09:28:44;9.02;;;4.63;;
71558;SDS011;59382;43.852;25.952;2022-10-16T09:31:18;12.50;;;5.28;;
71558;SDS011;59382;43.852;25.952;2022-10-16T09:33:47;15.07;;;5.90;;
71558;SDS011;59382;43.852;25.952;2022-10-16T09:36:17;5.72;;;4.22;;
71558;SDS011;59382;43.852;25.952;2022-10-16T09:38:44;11.00;;;4.88;;
71558;SDS011;59382;43.852;25.952;2022-10-16T09:41:19;10.40;;;4.13;;
71558;SDS011;59382;43.852;25.952;2022-10-16T09:43:57;8.77;;;5.00;;
71558;SDS011;59382;43.852;25.952;2022-10-16T09:46:26;6.30;;;3.72;;
71558;SDS011;59382;43.852;25.952;2022-10-16T09:49:00;9.48;;;4.85;;
71558;SDS011;59382;43.852;25.952;2022-10-16T09:51:28;7.70;;;4.72;;
71558;SDS011;59382;43.852;25.952;2022-10-16T09:56:26;5.90;;;4.10;;
71558;SDS011;59382;43.852;25.952;2022-10-16T09:58:58;12.02;;;5.35;;
71558;SDS011;59382;43.852;25.952;2022-10-16T10:01:30;7.45;;;4.20;;
71558;SDS011;59382;43.852;25.952;2022-10-16T10:04:01;4.22;;;3.40;;
71558;SDS011;59382;43.852;25.952;2022-10-16T10:14:32;7.25;;;3.83;;
71558;SDS011;59382;43.852;25.952;2022-10-16T10:22:18;8.52;;;4.35;;
71558;SDS011;59382;43.852;25.952;2022-10-16T10:25:07;5.13;;;4.00;;
71558;SDS011;59382;43.852;25.952;2022-10-16T10:35:54;7.35;;;4.85;;
71558;SDS011;59382;43.852;25.952;2022-10-16T10:41:14;7.07;;;4.70;;
71558;SDS011;59382;43.852;25.952;2022-10-16T10:46:14;15.15;;;5.68;;
71558;SDS011;59382;43.852;25.952;2022-10-16T10:51:38;9.80;;;5.53;;
71558;SDS011;59382;43.852;25.952;2022-10-16T10:54:20;7.72;;;5.60;;
71558;SDS011;59382;43.852;25.952;2022-10-16T10:56:58;10.50;;;5.28;;
71558;SDS011;59382;43.852;25.952;2022-10-16T10:59:32;10.70;;;5.10;;
71558;SDS011;59382;43.852;25.952;2022-10-16T11:07:30;7.80;;;5.50;;
71558;SDS011;59382;43.852;25.952;2022-10-16T11:10:03;7.60;;;4.65;;
71558;SDS011;59382;43.852;25.952;2022-10-16T11:15:56;8.63;;;5.07;;
71558;SDS011;59382;43.852;25.952;2022-10-16T11:18:39;6.82;;;4.40;;
71558;SDS011;59382;43.852;25.952;2022-10-16T11:21:13;8.57;;;5.35;;
71558;SDS011;59382;43.852;25.952;2022-10-16T11:23:47;7.70;;;4.90;;
71558;SDS011;59382;43.852;25.952;2022-10-16T11:26:35;10.23;;;5.72;;
71558;SDS011;59382;43.852;25.952;2022-10-16T11:29:10;8.02;;;4.20;;
71558;SDS011;59382;43.852;25.952;2022-10-16T11:31:48;7.18;;;5.60;;
71558;SDS011;59382;43.852;25.952;2022-10-16T11:36:53;7.20;;;4.75;;
71558;SDS011;59382;43.852;25.952;2022-10-16T11:39:34;11.63;;;5.50;;
71558;SDS011;59382;43.852;25.952;2022-10-16T11:44:58;4.85;;;3.90;;
71558;SDS011;59382;43.852;25.952;2022-10-16T11:47:37;8.82;;;4.60;;
71558;SDS011;59382;43.852;25.952;2022-10-16T11:53:38;7.97;;;4.78;;
71558;SDS011;59382;43.852;25.952;2022-10-16T11:55:41;6.40;;;4.18;;
71558;SDS011;59382;43.852;25.952;2022-10-16T12:08:35;8.85;;;5.78;;
71558;SDS011;59382;43.852;25.952;2022-10-16T12:11:08;10.75;;;5.03;;
71558;SDS011;59382;43.852;25.952;2022-10-16T12:14:03;7.88;;;5.18;;
71558;SDS011;59382;43.852;25.952;2022-10-16T12:16:53;11.13;;;5.22;;
71558;SDS011;59382;43.852;25.952;2022-10-16T12:19:25;12.23;;;4.90;;
71558;SDS011;59382;43.852;25.952;2022-10-16T12:21:54;8.23;;;4.97;;
71558;SDS011;59382;43.852;25.952;2022-10-16T12:26:50;11.13;;;5.97;;
71558;SDS011;59382;43.852;25.952;2022-10-16T12:29:41;9.65;;;5.60;;
71558;SDS011;59382;43.852;25.952;2022-10-16T12:34:51;8.02;;;5.50;;
71558;SDS011;59382;43.852;25.952;2022-10-16T12:39:48;8.77;;;6.05;;
71558;SDS011;59382;43.852;25.952;2022-10-16T12:44:52;7.53;;;5.55;;
71558;SDS011;59382;43.852;25.952;2022-10-16T12:47:20;12.73;;;5.68;;
71558;SDS011;59382;43.852;25.952;2022-10-16T12:49:50;12.45;;;6.07;;
71558;SDS011;59382;43.852;25.952;2022-10-16T12:52:27;9.85;;;6.07;;
71558;SDS011;59382;43.852;25.952;2022-10-16T12:54:59;13.10;;;5.57;;
71558;SDS011;59382;43.852;25.952;2022-10-16T12:57:50;9.05;;;5.63;;
71558;SDS011;59382;43.852;25.952;2022-10-16T13:00:26;14.13;;;5.40;;
71558;SDS011;59382;43.852;25.952;2022-10-16T13:03:24;11.65;;;5.82;;
71558;SDS011;59382;43.852;25.952;2022-10-16T13:25:38;12.50;;;5.82;;
71558;SDS011;59382;43.852;25.952;2022-10-16T13:28:11;11.25;;;4.68;;
71558;SDS011;59382;43.852;25.952;2022-10-16T13:33:15;9.18;;;5.03;;
71558;SDS011;59382;43.852;25.952;2022-10-16T13:36:05;7.95;;;5.55;;
71558;SDS011;59382;43.852;25.952;2022-10-16T13:38:32;11.48;;;5.88;;
71558;SDS011;59382;43.852;25.952;2022-10-16T13:41:03;5.95;;;4.50;;
71558;SDS011;59382;43.852;25.952;2022-10-16T13:43:35;9.05;;;6.63;;
71558;SDS011;59382;43.852;25.952;2022-10-16T13:46:13;9.75;;;5.10;;
71558;SDS011;59382;43.852;25.952;2022-10-16T13:48:43;8.75;;;4.95;;
71558;SDS011;59382;43.852;25.952;2022-10-16T13:53:40;8.98;;;4.85;;
71558;SDS011;59382;43.852;25.952;2022-10-16T13:56:19;6.82;;;4.78;;
71558;SDS011;59382;43.852;25.952;2022-10-16T13:58:57;10.20;;;5.25;;
71558;SDS011;59382;43.852;25.952;2022-10-16T14:01:31;6.05;;;4.55;;
71558;SDS011;59382;43.852;25.952;2022-10-16T14:04:03;7.53;;;4.18;;
71558;SDS011;59382;43.852;25.952;2022-10-16T14:06:30;10.75;;;4.38;;
71558;SDS011;59382;43.852;25.952;2022-10-16T14:09:06;10.63;;;4.07;;
71558;SDS011;59382;43.852;25.952;2022-10-16T14:11:36;8.75;;;4.38;;
71558;SDS011;59382;43.852;25.952;2022-10-16T14:14:10;4.85;;;3.88;;
71558;SDS011;59382;43.852;25.952;2022-10-16T14:16:37;6.15;;;3.70;;
71558;SDS011;59382;43.852;25.952;2022-10-16T14:19:06;5.53;;;3.95;;
71558;SDS011;59382;43.852;25.952;2022-10-16T14:21:43;6.80;;;4.57;;
71558;SDS011;59382;43.852;25.952;2022-10-16T14:24:12;5.05;;;3.40;;
71558;SDS011;59382;43.852;25.952;2022-10-16T14:26:46;6.03;;;3.80;;
71558;SDS011;59382;43.852;25.952;2022-10-16T14:29:23;6.10;;;3.95;;
71558;SDS011;59382;43.852;25.952;2022-10-16T14:32:00;6.95;;;4.13;;
71558;SDS011;59382;43.852;25.952;2022-10-16T14:37:01;9.63;;;4.18;;
71558;SDS011;59382;43.852;25.952;2022-10-16T14:39:38;4.93;;;3.35;;
71558;SDS011;59382;43.852;25.952;2022-10-16T14:42:11;8.23;;;3.83;;
71558;SDS011;59382;43.852;25.952;2022-10-16T14:44:41;9.75;;;3.70;;
71558;SDS011;59382;43.852;25.952;2022-10-16T14:47:08;6.05;;;3.33;;
71558;SDS011;59382;43.852;25.952;2022-10-16T14:49:38;6.32;;;3.30;;
71558;SDS011;59382;43.852;25.952;2022-10-16T14:52:07;8.73;;;3.70;;
71558;SDS011;59382;43.852;25.952;2022-10-16T14:54:34;5.97;;;3.55;;
71558;SDS011;59382;43.852;25.952;2022-10-16T14:57:00;7.60;;;3.60;;
71558;SDS011;59382;43.852;25.952;2022-10-16T14:59:33;8.68;;;3.78;;
71558;SDS011;59382;43.852;25.952;2022-10-16T15:02:25;6.05;;;3.10;;
71558;SDS011;59382;43.852;25.952;2022-10-16T15:04:56;6.63;;;3.78;;
71558;SDS011;59382;43.852;25.952;2022-10-16T15:07:22;10.35;;;4.10;;
71558;SDS011;59382;43.852;25.952;2022-10-16T15:09:48;5.93;;;3.30;;
71558;SDS011;59382;43.852;25.952;2022-10-16T15:12:14;7.43;;;3.40;;
71558;SDS011;59382;43.852;25.952;2022-10-16T15:14:40;10.90;;;4.68;;
71558;SDS011;59382;43.852;25.952;2022-10-16T15:17:08;9.48;;;4.00;;
71558;SDS011;59382;43.852;25.952;2022-10-16T15:19:35;8.77;;;4.45;;
71558;SDS011;59382;43.852;25.952;2022-10-16T15:22:01;10.73;;;4.07;;
71558;SDS011;59382;43.852;25.952;2022-10-16T15:24:26;9.10;;;3.38;;
71558;SDS011;59382;43.852;25.952;2022-10-16T15:26:52;8.68;;;4.82;;
71558;SDS011;59382;43.852;25.952;2022-10-16T15:29:18;11.82;;;6.50;;
71558;SDS011;59382;43.852;25.952;2022-10-16T15:31:43;6.22;;;5.15;;
71558;SDS011;59382;43.852;25.952;2022-10-16T15:34:10;6.72;;;4.03;;
71558;SDS011;59382;43.852;25.952;2022-10-16T15:36:36;8.02;;;3.78;;
71558;SDS011;59382;43.852;25.952;2022-10-16T15:39:03;6.20;;;3.40;;
71558;SDS011;59382;43.852;25.952;2022-10-16T15:41:30;8.15;;;3.80;;
71558;SDS011;59382;43.852;25.952;2022-10-16T15:43:55;10.80;;;4.07;;
71558;SDS011;59382;43.852;25.952;2022-10-16T15:46:22;7.97;;;3.70;;
71558;SDS011;59382;43.852;25.952;2022-10-16T15:48:49;10.00;;;4.65;;
71558;SDS011;59382;43.852;25.952;2022-10-16T15:51:16;11.40;;;5.30;;
71558;SDS011;59382;43.852;25.952;2022-10-16T15:53:43;9.27;;;4.78;;
71558;SDS011;59382;43.852;25.952;2022-10-16T15:56:11;17.35;;;5.65;;
71558;SDS011;59382;43.852;25.952;2022-10-16T15:58:37;11.80;;;4.63;;
71558;SDS011;59382;43.852;25.952;2022-10-16T16:01:03;9.50;;;4.97;;
71558;SDS011;59382;43.852;25.952;2022-10-16T16:03:29;9.90;;;4.60;;
71558;SDS011;59382;43.852;25.952;2022-10-16T16:05:55;11.23;;;4.68;;
71558;SDS011;59382;43.852;25.952;2022-10-16T16:08:21;8.43;;;5.28;;
71558;SDS011;59382;43.852;25.952;2022-10-16T16:10:57;8.70;;;5.30;;
71558;SDS011;59382;43.852;25.952;2022-10-16T16:13:27;15.75;;;5.53;;
71558;SDS011;59382;43.852;25.952;2022-10-16T16:15:53;15.45;;;6.78;;
71558;SDS011;59382;43.852;25.952;2022-10-16T16:18:19;13.55;;;6.80;;
71558;SDS011;59382;43.852;25.952;2022-10-16T16:20:45;11.48;;;7.00;;
71558;SDS011;59382;43.852;25.952;2022-10-16T16:23:10;15.48;;;7.38;;
71558;SDS011;59382;43.852;25.952;2022-10-16T16:25:36;15.90;;;6.50;;
71558;SDS011;59382;43.852;25.952;2022-10-16T16:28:02;12.23;;;6.45;;
71558;SDS011;59382;43.852;25.952;2022-10-16T16:30:27;13.48;;;6.35;;
71558;SDS011;59382;43.852;25.952;2022-10-16T16:32:53;11.13;;;6.28;;
71558;SDS011;59382;43.852;25.952;2022-10-16T16:35:19;12.95;;;6.65;;
71558;SDS011;59382;43.852;25.952;2022-10-16T16:37:44;14.18;;;6.00;;
71558;SDS011;59382;43.852;25.952;2022-10-16T16:40:12;20.42;;;6.25;;
71558;SDS011;59382;43.852;25.952;2022-10-16T16:42:37;15.93;;;6.70;;
71558;SDS011;59382;43.852;25.952;2022-10-16T16:45:03;35.88;;;13.25;;
71558;SDS011;59382;43.852;25.952;2022-10-16T16:47:29;19.60;;;10.07;;